createdAt,value
2023-05-25T00:00:02.397Z,66
2023-05-25T00:20:02.943Z,67
2023-05-25T00:40:02.477Z,68
2023-05-25T01:00:02.753Z,68
2023-05-25T01:20:12.107Z,69
2023-05-25T01:40:02.598Z,69
2023-05-25T02:00:02.864Z,69
2023-05-25T02:20:03.376Z,69
2023-05-25T02:40:02.739Z,69
2023-05-25T03:00:03.116Z,70
2023-05-25T03:20:02.718Z,70
2023-05-25T03:40:03.287Z,70
2023-05-25T04:00:02.731Z,70
2023-05-25T04:20:03.288Z,71
2023-05-25T04:40:02.826Z,71
2023-05-25T05:00:03.220Z,71
2023-05-25T05:20:02.669Z,71
2023-05-25T05:40:03.305Z,70
2023-05-25T06:00:02.780Z,67
2023-05-25T06:20:02.344Z,64
2023-05-25T06:40:02.916Z,60
2023-05-25T07:00:02.254Z,55
2023-05-25T07:20:02.890Z,51
2023-05-25T07:40:02.420Z,48
2023-05-25T08:00:02.809Z,45
2023-05-25T08:20:02.591Z,45
2023-05-25T08:40:03.205Z,43
2023-05-25T09:00:03.067Z,43
2023-05-25T09:20:02.866Z,42
2023-05-25T09:40:02.370Z,42
2023-05-25T10:00:02.759Z,40
2023-05-25T10:20:02.843Z,38
2023-05-25T10:40:02.311Z,37
2023-05-25T11:00:02.830Z,37
2023-05-25T11:20:02.349Z,37
2023-05-25T11:40:02.815Z,36
2023-05-25T12:00:03.403Z,36
2023-05-25T12:20:03.188Z,35
2023-05-25T12:40:02.875Z,37
2023-05-25T13:00:02.360Z,38
2023-05-25T13:20:03.120Z,40
2023-05-25T13:40:02.567Z,42
2023-05-25T14:00:02.976Z,42
2023-05-25T14:20:02.680Z,41
2023-05-25T14:40:03.163Z,42
2023-05-25T15:00:02.801Z,44
2023-05-25T15:20:02.727Z,45
2023-05-25T15:40:03.082Z,44
2023-05-25T16:00:02.608Z,46
2023-05-25T16:20:03.387Z,45
2023-05-25T16:40:02.990Z,46
2023-05-25T17:00:02.385Z,46
2023-05-25T17:20:03.215Z,45
2023-05-25T17:40:02.652Z,45
2023-05-25T18:00:02.958Z,46
2023-05-25T18:20:02.438Z,47
2023-05-25T18:40:03.330Z,49
2023-05-25T19:00:02.652Z,50
2023-05-25T19:20:02.321Z,51
2023-05-25T19:40:02.775Z,53
2023-05-25T20:00:06.047Z,54
2023-05-25T20:20:02.750Z,55
2023-05-25T20:40:03.154Z,56
2023-05-25T21:00:02.582Z,57
2023-05-25T21:20:02.390Z,58
2023-05-25T21:40:02.811Z,59
2023-05-25T22:00:03.022Z,59
2023-05-25T22:20:08.204Z,61
2023-05-25T22:40:02.925Z,61
2023-05-25T23:00:02.448Z,61
2023-05-25T23:20:02.810Z,61
2023-05-25T23:40:03.022Z,62
